YSB0648 ZBAA-ZSPD
Flight info
| Callsign | YSB0648 |
|---|---|
| Flight time | N/A |
| Altitude | 37100 |
| Route | ELKUR W40 YQG W142 DALIM A593 DPX A470 DALNU W166 ZJ W167 SASAN R343 EKIMU |
| Aircraft | A339/H-SDE2E3GHIJ3J4J5LM1ORWXY/LB1D1 |
Departure
| Time | N/A |
|---|---|
| Airport | Beijing Capital International Airport (ZBAA) |
Arrival
| Time | 2026-05-05 05:23 |
|---|---|
| Airport | Shanghai Pudong International Airport (ZSPD) |
| Time | Latitude | Longitude | Altitude | Speed | Heading |
|---|---|---|---|---|---|
| 2026-05-05 04:43 | 32.78466 | 119.01847 | 31050 ft | 378 kts | 148° |
| 2026-05-05 04:43 | 32.75573 | 119.04202 | 31057 ft | 385 kts | 148° |
| 2026-05-05 04:44 | 32.71798 | 119.07301 | 31066 ft | 403 kts | 147° |
| 2026-05-05 04:44 | 32.68686 | 119.09869 | 31057 ft | 417 kts | 147° |
| 2026-05-05 04:44 | 32.67091 | 119.11187 | 30930 ft | 421 kts | 147° |
| 2026-05-05 04:44 | 32.64704 | 119.13161 | 30705 ft | 421 kts | 147° |
| 2026-05-05 04:45 | 32.62286 | 119.15159 | 30475 ft | 418 kts | 147° |
| 2026-05-05 04:45 | 32.59935 | 119.17103 | 30249 ft | 415 kts | 147° |
| 2026-05-05 04:45 | 32.57558 | 119.19067 | 30014 ft | 412 kts | 147° |
| 2026-05-05 04:45 | 32.55195 | 119.21018 | 29760 ft | 411 kts | 147° |
| 2026-05-05 04:46 | 32.52084 | 119.23584 | 29416 ft | 411 kts | 147° |
| 2026-05-05 04:46 | 32.50528 | 119.24867 | 29253 ft | 412 kts | 147° |
| 2026-05-05 04:46 | 32.47385 | 119.27456 | 28904 ft | 412 kts | 147° |
| 2026-05-05 04:46 | 32.45035 | 119.29389 | 28649 ft | 412 kts | 147° |
| 2026-05-05 04:47 | 32.43467 | 119.30679 | 28478 ft | 413 kts | 147° |
| 2026-05-05 04:47 | 32.41106 | 119.32619 | 28222 ft | 413 kts | 147° |
| 2026-05-05 04:47 | 32.38744 | 119.34560 | 27966 ft | 413 kts | 147° |
| 2026-05-05 04:47 | 32.36372 | 119.36507 | 27707 ft | 411 kts | 147° |
| 2026-05-05 04:48 | 32.33272 | 119.39053 | 27369 ft | 409 kts | 147° |
| 2026-05-05 04:48 | 32.30933 | 119.40971 | 27111 ft | 408 kts | 147° |
| 2026-05-05 04:48 | 32.28611 | 119.42873 | 26856 ft | 405 kts | 147° |
| 2026-05-05 04:48 | 32.27058 | 119.44145 | 26686 ft | 404 kts | 147° |
| 2026-05-05 04:49 | 32.24004 | 119.46645 | 26350 ft | 402 kts | 147° |
| 2026-05-05 04:49 | 32.22451 | 119.47916 | 26180 ft | 401 kts | 146° |
| 2026-05-05 04:49 | 32.20179 | 119.49774 | 25926 ft | 399 kts | 147° |
| 2026-05-05 04:49 | 32.17880 | 119.51653 | 25670 ft | 398 kts | 147° |
| 2026-05-05 04:50 | 32.14863 | 119.54117 | 25334 ft | 395 kts | 147° |
| 2026-05-05 04:50 | 32.13357 | 119.55345 | 25165 ft | 394 kts | 146° |
| 2026-05-05 04:50 | 32.11104 | 119.57184 | 24911 ft | 392 kts | 146° |
| 2026-05-05 04:50 | 32.08132 | 119.59607 | 24570 ft | 391 kts | 146° |
| 2026-05-05 04:51 | 32.05907 | 119.61420 | 24309 ft | 389 kts | 146° |
| 2026-05-05 04:51 | 32.03689 | 119.63227 | 24049 ft | 387 kts | 146° |
| 2026-05-05 04:51 | 32.01462 | 119.65040 | 23788 ft | 386 kts | 147° |
| 2026-05-05 04:51 | 31.99249 | 119.66838 | 23528 ft | 384 kts | 146° |
| 2026-05-05 04:52 | 31.97812 | 119.68005 | 23361 ft | 383 kts | 146° |
| 2026-05-05 04:52 | 31.95667 | 119.69861 | 23098 ft | 382 kts | 141° |
| 2026-05-05 04:52 | 31.93746 | 119.72009 | 22835 ft | 381 kts | 133° |
| 2026-05-05 04:52 | 31.92099 | 119.74431 | 22575 ft | 380 kts | 126° |
| 2026-05-05 04:53 | 31.90120 | 119.77856 | 22228 ft | 378 kts | 124° |
| 2026-05-05 04:53 | 31.88662 | 119.80434 | 21966 ft | 377 kts | 124° |
| 2026-05-05 04:53 | 31.87695 | 119.82142 | 21793 ft | 376 kts | 124° |
| 2026-05-05 04:53 | 31.86250 | 119.84682 | 21532 ft | 374 kts | 124° |
| 2026-05-05 04:54 | 31.84805 | 119.87209 | 21273 ft | 373 kts | 124° |
| 2026-05-05 04:54 | 31.83348 | 119.89747 | 21011 ft | 372 kts | 124° |
| 2026-05-05 04:54 | 31.81436 | 119.93068 | 20669 ft | 371 kts | 124° |
| 2026-05-05 04:54 | 31.80460 | 119.94762 | 20494 ft | 370 kts | 124° |
| 2026-05-05 04:55 | 31.78553 | 119.98068 | 20153 ft | 369 kts | 124° |
| 2026-05-05 04:55 | 31.77106 | 120.00572 | 19897 ft | 367 kts | 124° |
| 2026-05-05 04:55 | 31.76155 | 120.02218 | 19740 ft | 366 kts | 124° |
| 2026-05-05 04:55 | 31.74255 | 120.05506 | 19674 ft | 365 kts | 124° |
| 2026-05-05 04:56 | 31.73305 | 120.07148 | 19672 ft | 366 kts | 124° |
| 2026-05-05 04:56 | 31.71889 | 120.09597 | 19669 ft | 366 kts | 124° |
| 2026-05-05 04:56 | 31.70455 | 120.12073 | 19667 ft | 366 kts | 125° |
| 2026-05-05 04:56 | 31.68545 | 120.15372 | 19671 ft | 365 kts | 125° |
| 2026-05-05 04:57 | 31.67601 | 120.17001 | 19674 ft | 365 kts | 125° |
| 2026-05-05 04:57 | 31.66168 | 120.19472 | 19675 ft | 366 kts | 125° |
| 2026-05-05 04:57 | 31.64729 | 120.21950 | 19678 ft | 366 kts | 125° |
| 2026-05-05 04:57 | 31.62836 | 120.25209 | 19676 ft | 366 kts | 125° |
| 2026-05-05 04:58 | 31.61390 | 120.27695 | 19678 ft | 366 kts | 125° |
| 2026-05-05 04:58 | 31.59975 | 120.30173 | 19680 ft | 366 kts | 122° |
| 2026-05-05 04:58 | 31.59138 | 120.31895 | 19683 ft | 367 kts | 117° |
| 2026-05-05 04:58 | 31.58102 | 120.34598 | 19540 ft | 367 kts | 110° |
| 2026-05-05 04:59 | 31.57243 | 120.37418 | 19325 ft | 365 kts | 109° |
| 2026-05-05 04:59 | 31.56429 | 120.40234 | 19129 ft | 364 kts | 108° |
| 2026-05-05 04:59 | 31.55352 | 120.43967 | 18896 ft | 363 kts | 109° |
| 2026-05-05 04:59 | 31.54544 | 120.46742 | 18688 ft | 362 kts | 109° |
| 2026-05-05 05:00 | 31.53998 | 120.48607 | 18511 ft | 361 kts | 109° |
| 2026-05-05 05:00 | 31.52911 | 120.52300 | 18118 ft | 359 kts | 109° |
| 2026-05-05 05:00 | 31.52100 | 120.55043 | 17814 ft | 357 kts | 109° |
| 2026-05-05 05:00 | 31.51560 | 120.56869 | 17619 ft | 356 kts | 109° |
| 2026-05-05 05:01 | 31.50752 | 120.59600 | 17309 ft | 354 kts | 109° |
| 2026-05-05 05:01 | 31.49675 | 120.63235 | 16906 ft | 352 kts | 109° |
| 2026-05-05 05:01 | 31.49146 | 120.65018 | 16706 ft | 350 kts | 109° |
| 2026-05-05 05:01 | 31.48345 | 120.67715 | 16395 ft | 348 kts | 109° |
| 2026-05-05 05:02 | 31.47291 | 120.71267 | 15996 ft | 346 kts | 109° |
| 2026-05-05 05:02 | 31.46503 | 120.73912 | 15697 ft | 344 kts | 109° |
| 2026-05-05 05:02 | 31.45979 | 120.75667 | 15501 ft | 342 kts | 109° |
| 2026-05-05 05:02 | 31.44941 | 120.79146 | 15114 ft | 340 kts | 109° |
| 2026-05-05 05:03 | 31.44412 | 120.80882 | 14919 ft | 338 kts | 110° |
| 2026-05-05 05:03 | 31.43609 | 120.83469 | 14627 ft | 336 kts | 110° |
| 2026-05-05 05:03 | 31.42815 | 120.86013 | 14339 ft | 335 kts | 110° |
| 2026-05-05 05:03 | 31.41752 | 120.89420 | 13945 ft | 333 kts | 110° |
| 2026-05-05 05:04 | 31.41233 | 120.91084 | 13753 ft | 332 kts | 110° |
| 2026-05-05 05:04 | 31.40446 | 120.93612 | 13463 ft | 330 kts | 110° |
| 2026-05-05 05:04 | 31.39404 | 120.96983 | 13090 ft | 327 kts | 109° |
| 2026-05-05 05:04 | 31.38905 | 120.98627 | 12907 ft | 326 kts | 109° |
| 2026-05-05 05:05 | 31.37892 | 121.01971 | 12520 ft | 324 kts | 109° |
| 2026-05-05 05:05 | 31.37401 | 121.03593 | 12339 ft | 323 kts | 109° |
| 2026-05-05 05:05 | 31.36647 | 121.06073 | 12065 ft | 321 kts | 109° |
| 2026-05-05 05:05 | 31.35652 | 121.09338 | 11694 ft | 319 kts | 109° |
| 2026-05-05 05:06 | 31.35155 | 121.10969 | 11513 ft | 318 kts | 109° |
| 2026-05-05 05:06 | 31.34183 | 121.14190 | 11119 ft | 316 kts | 109° |
| 2026-05-05 05:06 | 31.33454 | 121.16624 | 10834 ft | 313 kts | 109° |
| 2026-05-05 05:06 | 31.32979 | 121.18208 | 10651 ft | 312 kts | 109° |
| 2026-05-05 05:07 | 31.32028 | 121.21378 | 10299 ft | 309 kts | 109° |
| 2026-05-05 05:07 | 31.31317 | 121.23747 | 10037 ft | 307 kts | 109° |
| 2026-05-05 05:07 | 31.30624 | 121.26054 | 9968 ft | 298 kts | 109° |
| 2026-05-05 05:07 | 31.29935 | 121.28339 | 9726 ft | 295 kts | 109° |
| 2026-05-05 05:08 | 31.29254 | 121.30599 | 9448 ft | 293 kts | 109° |
| 2026-05-05 05:08 | 31.28586 | 121.32816 | 9202 ft | 291 kts | 109° |
| 2026-05-05 05:08 | 31.27908 | 121.35053 | 8952 ft | 289 kts | 109° |
| 2026-05-05 05:08 | 31.27239 | 121.37257 | 8693 ft | 288 kts | 109° |
| 2026-05-05 05:09 | 31.26785 | 121.38753 | 8518 ft | 287 kts | 109° |
| 2026-05-05 05:09 | 31.26123 | 121.40933 | 8268 ft | 286 kts | 109° |
| 2026-05-05 05:09 | 31.25234 | 121.43861 | 7927 ft | 284 kts | 109° |
| 2026-05-05 05:09 | 31.24799 | 121.45290 | 7768 ft | 283 kts | 109° |
| 2026-05-05 05:10 | 31.24139 | 121.47459 | 7541 ft | 282 kts | 109° |
| 2026-05-05 05:10 | 31.23484 | 121.49609 | 7313 ft | 280 kts | 109° |
| 2026-05-05 05:10 | 31.22761 | 121.52436 | 7255 ft | 265 kts | 94° |
| 2026-05-05 05:10 | 31.22807 | 121.53848 | 7211 ft | 260 kts | 77° |
| 2026-05-05 05:11 | 31.23493 | 121.56543 | 6898 ft | 260 kts | 70° |
| 2026-05-05 05:11 | 31.24077 | 121.58536 | 6625 ft | 260 kts | 70° |
| 2026-05-05 05:11 | 31.24781 | 121.60454 | 6364 ft | 259 kts | 51° |
| 2026-05-05 05:11 | 31.26222 | 121.61698 | 6124 ft | 258 kts | 17° |
| 2026-05-05 05:12 | 31.27976 | 121.61822 | 5859 ft | 258 kts | 346° |
| 2026-05-05 05:12 | 31.29694 | 121.61166 | 5664 ft | 257 kts | 340° |
| 2026-05-05 05:12 | 31.31392 | 121.60471 | 5443 ft | 259 kts | 341° |
| 2026-05-05 05:12 | 31.32530 | 121.60016 | 5270 ft | 260 kts | 341° |
| 2026-05-05 05:13 | 31.34252 | 121.59344 | 4999 ft | 260 kts | 341° |
| 2026-05-05 05:13 | 31.36536 | 121.58467 | 4662 ft | 258 kts | 341° |
| 2026-05-05 05:13 | 31.38226 | 121.57908 | 4639 ft | 248 kts | 354° |
| 2026-05-05 05:13 | 31.39857 | 121.58307 | 4545 ft | 238 kts | 34° |
| 2026-05-05 05:14 | 31.40640 | 121.59189 | 4397 ft | 231 kts | 63° |
| 2026-05-05 05:14 | 31.41085 | 121.60925 | 4183 ft | 217 kts | 84° |
| 2026-05-05 05:14 | 31.41334 | 121.63216 | 3909 ft | 209 kts | 84° |
| 2026-05-05 05:14 | 31.41474 | 121.64320 | 3782 ft | 207 kts | 82° |
| 2026-05-05 05:15 | 31.41815 | 121.66516 | 3539 ft | 205 kts | 82° |
| 2026-05-05 05:15 | 31.42097 | 121.68137 | 3348 ft | 204 kts | 81° |
| 2026-05-05 05:15 | 31.42353 | 121.69763 | 3139 ft | 199 kts | 93° |
| 2026-05-05 05:15 | 31.41988 | 121.71249 | 2959 ft | 183 kts | 129° |
| 2026-05-05 05:16 | 31.41420 | 121.71914 | 2866 ft | 171 kts | 148° |
| 2026-05-05 05:16 | 31.40367 | 121.72444 | 2691 ft | 159 kts | 163° |
| 2026-05-05 05:16 | 31.39007 | 121.72946 | 2536 ft | 147 kts | 163° |
| 2026-05-05 05:16 | 31.38352 | 121.73186 | 2544 ft | 148 kts | 163° |
| 2026-05-05 05:17 | 31.37371 | 121.73547 | 2550 ft | 149 kts | 163° |
| 2026-05-05 05:17 | 31.36050 | 121.74040 | 2501 ft | 149 kts | 163° |
| 2026-05-05 05:17 | 31.35059 | 121.74413 | 2315 ft | 149 kts | 163° |
| 2026-05-05 05:17 | 31.34075 | 121.74785 | 2093 ft | 148 kts | 163° |
| 2026-05-05 05:18 | 31.33419 | 121.75034 | 1975 ft | 147 kts | 163° |
| 2026-05-05 05:18 | 31.32440 | 121.75405 | 1932 ft | 147 kts | 163° |
| 2026-05-05 05:18 | 31.31141 | 121.75897 | 1923 ft | 147 kts | 163° |
| 2026-05-05 05:18 | 31.30481 | 121.76148 | 1918 ft | 148 kts | 163° |
| 2026-05-05 05:19 | 31.29174 | 121.76643 | 1934 ft | 148 kts | 164° |
| 2026-05-05 05:19 | 31.28195 | 121.77014 | 1928 ft | 148 kts | 163° |
| 2026-05-05 05:19 | 31.27207 | 121.77388 | 1926 ft | 148 kts | 163° |
| 2026-05-05 05:19 | 31.26226 | 121.77759 | 1927 ft | 148 kts | 163° |
| 2026-05-05 05:20 | 31.25232 | 121.78134 | 1847 ft | 148 kts | 163° |
| 2026-05-05 05:20 | 31.24255 | 121.78504 | 1655 ft | 147 kts | 163° |
| 2026-05-05 05:20 | 31.23606 | 121.78749 | 1531 ft | 147 kts | 163° |
| 2026-05-05 05:20 | 31.22304 | 121.79241 | 1281 ft | 147 kts | 163° |
| 2026-05-05 05:21 | 31.21341 | 121.79604 | 1097 ft | 146 kts | 163° |
| 2026-05-05 05:21 | 31.20362 | 121.79974 | 909 ft | 146 kts | 163° |
| 2026-05-05 05:21 | 31.19404 | 121.80336 | 721 ft | 145 kts | 163° |
| 2026-05-05 05:21 | 31.18430 | 121.80704 | 532 ft | 145 kts | 163° |
| 2026-05-05 05:22 | 31.17469 | 121.81067 | 346 ft | 145 kts | 163° |
| 2026-05-05 05:22 | 31.16525 | 121.81419 | 145 ft | 142 kts | 163° |
| 2026-05-05 05:22 | 31.15596 | 121.81759 | 27 ft | 132 kts | 159° |
| 2026-05-05 05:22 | 31.14881 | 121.82036 | 26 ft | 81 kts | 164° |
| 2026-05-05 05:23 | 31.14499 | 121.82169 | 26 ft | 43 kts | 166° |
| 2026-05-05 05:23 | 31.14251 | 121.82152 | 30 ft | 27 kts | 188° |
| 2026-05-05 05:23 | 31.14090 | 121.82147 | 30 ft | 23 kts | 169° |